OMAA/AUH METAR and TAF weather

Enter ICAO airport designator
Station Type Date Time Source
OMAA METAR 2022/09/26 09:00 UTC NOAA

OMAA 260900Z 30005KT 220V010 CAVOK 40/20 Q1005 NOSIG


Station Type Date Time Source
OMAA Decoded METAR 2022/09/26 09:00 UTC NOAA

Abu Dhabi International Airport, United Arab Emirates (OMAA) 24-26N 054-39E 27M
Sep 26, 2022 - 05:00 AM EDT / 2022.09.26 0900 UTC
Wind: from the WNW (300 degrees) at 6 MPH (5 KT) (direction variable):0
Visibility: greater than 7 mile(s):0
Temperature: 104 F (40 C)
Heat index: 110.5 F (43.6 C):1
Dew Point: 68 F (20 C)
Relative Humidity: 31%
Pressure (altimeter): 29.68 in. Hg (1005 hPa)
ob: OMAA 260900Z 30005KT 220V010 CAVOK 40/20 Q1005 NOSIG
cycle: 9

Station Type Date Time Source
OMAA TAF 2022/09/26 06:57 UTC NOAA

TAF TAF OMAA 260500Z 2606/2712 VRB02KT 8000 NSC
BECMG 2607/2609 32011KT
BECMG 2616/2618 VRB02KT PROB40 2621/2705 4000 HZ PROB30 2623/2705 0200 FG VV///
BECMG 2707/2709 31012KT

Example: see airport list